Time;durP1;ratioP1;P1;durP2;ratioP2;P2;SDS_P1;SDS_P2;PMS_P1;PMS_P2;Temp;Humidity;BMP_temperature;BMP_pressure;BME280_temperature;BME280_humidity;BME280_pressure;Samples;Min_cycle;Max_cycle;Signal;HPM_P1;HPM_P2
2022/06/24 00:00:48;;;;;;;10.95;8.50;;;22.30;99.90;;;;;;5007599;28;20065;-64
2022/06/24 00:03:19;;;;;;;9.60;7.97;;;22.20;99.90;;;;;;5014070;28;20046;-64
2022/06/24 00:05:49;;;;;;;10.25;7.15;;;22.40;99.90;;;;;;4997900;28;20041;-64
2022/06/24 00:08:15;;;;;;;11.02;7.13;;;22.30;99.90;;;;;;5015492;28;20033;-63
2022/06/24 00:10:43;;;;;;;11.77;7.80;;;22.20;99.90;;;;;;4998032;28;20109;-64
2022/06/24 00:13:08;;;;;;;10.40;6.90;;;22.10;99.90;;;;;;5015621;28;20195;-63
2022/06/24 00:15:36;;;;;;;10.35;6.75;;;21.90;99.90;;;;;;5024919;28;20616;-63
2022/06/24 00:18:17;;;;;;;11.00;7.88;;;23.40;99.90;;;;;;5016713;28;20045;-63
2022/06/24 00:20:48;;;;;;;9.25;6.45;;;21.60;99.90;;;;;;5017420;28;20060;-63
2022/06/24 00:23:19;;;;;;;8.57;6.13;;;21.40;99.90;;;;;;5017533;28;20045;-64
2022/06/24 00:25:46;;;;;;;11.13;6.40;;;22.60;99.90;;;;;;5035654;28;20041;-64
2022/06/24 00:28:12;;;;;;;8.73;7.32;;;21.40;99.90;;;;;;5021655;28;20048;-63
2022/06/24 00:30:52;;;;;;;12.60;6.45;;;21.30;99.90;;;;;;5030569;28;20045;-64
2022/06/24 00:33:23;;;;;;;9.82;7.53;;;21.20;99.90;;;;;;5003926;28;20045;-64
2022/06/24 00:35:56;;;;;;;8.75;6.75;;;21.10;99.90;;;;;;5014924;28;20499;-64
2022/06/24 00:38:29;;;;;;;11.75;7.47;;;21.90;99.90;;;;;;4996683;28;20073;-64
2022/06/24 00:41:06;;;;;;;11.25;7.50;;;21.10;99.90;;;;;;4997293;28;20124;-64
2022/06/24 00:43:42;;;;;;;10.60;7.75;;;21.30;99.90;;;;;;5013188;28;20120;-64
2022/06/24 00:46:14;;;;;;;8.70;6.47;;;21.40;99.90;;;;;;5021265;28;20506;-64
2022/06/24 00:48:46;;;;;;;8.15;6.63;;;20.70;99.90;;;;;;4999823;28;20038;-64
2022/06/24 00:51:12;;;;;;;9.40;6.43;;;22.30;99.90;;;;;;5013424;28;20046;-64
2022/06/24 00:53:47;;;;;;;8.40;6.00;;;20.70;99.90;;;;;;5008722;28;20038;-64
2022/06/24 00:56:15;;;;;;;8.10;6.20;;;20.30;99.90;;;;;;5020104;28;20037;-64
2022/06/24 00:58:53;;;;;;;8.20;5.68;;;19.90;99.90;;;;;;5013268;28;20099;-64
2022/06/24 01:01:29;;;;;;;7.75;6.53;;;20.40;99.90;;;;;;5016461;28;20446;-66
2022/06/24 01:03:59;;;;;;;12.48;6.43;;;20.30;99.90;;;;;;5030276;28;20416;-64
2022/06/24 01:06:26;;;;;;;9.63;6.38;;;20.30;99.90;;;;;;5037602;28;20068;-63
2022/06/24 01:08:52;;;;;;;9.05;6.10;;;20.50;99.90;;;;;;5024682;28;20483;-64
2022/06/24 01:11:27;;;;;;;9.05;7.45;;;20.50;99.90;;;;;;5022535;28;20081;-64
2022/06/24 01:13:54;;;;;;;10.73;6.78;;;20.30;99.90;;;;;;5031275;28;20123;-64
2022/06/24 01:16:23;;;;;;;6.50;5.85;;;20.40;99.90;;;;;;5020423;28;20099;-64
2022/06/24 01:19:00;;;;;;;10.90;7.90;;;20.00;99.90;;;;;;5014670;28;20445;-63
2022/06/24 01:21:44;;;;;;;9.15;6.43;;;20.10;99.90;;;;;;5041736;28;20394;-64
2022/06/24 01:24:11;;;;;;;8.85;7.28;;;20.10;99.90;;;;;;5035812;28;20200;-64
2022/06/24 01:26:39;;;;;;;11.25;6.72;;;20.00;99.90;;;;;;5019237;28;20511;-64
2022/06/24 01:29:05;;;;;;;8.18;6.35;;;19.80;99.90;;;;;;5028197;28;20037;-64
2022/06/24 01:31:31;;;;;;;13.35;7.80;;;21.40;99.90;;;;;;5022240;28;20038;-64
2022/06/24 01:33:57;;;;;;;11.40;6.72;;;19.90;99.90;;;;;;5010753;28;20123;-64
2022/06/24 01:36:23;;;;;;;10.88;6.65;;;20.00;99.90;;;;;;5027534;28;20033;-64
2022/06/24 01:38:49;;;;;;;9.00;6.20;;;19.70;99.90;;;;;;5025957;28;20045;-64
2022/06/24 01:41:16;;;;;;;10.23;6.10;;;19.50;99.90;;;;;;5034308;28;20453;-64
2022/06/24 01:43:42;;;;;;;9.45;6.25;;;19.50;99.90;;;;;;5012213;28;20080;-64
2022/06/24 01:46:08;;;;;;;7.75;6.20;;;19.70;99.90;;;;;;5015310;28;20069;-64
2022/06/24 01:48:34;;;;;;;10.15;6.30;;;19.60;99.90;;;;;;5039616;28;20465;-64
2022/06/24 01:50:59;;;;;;;9.50;6.88;;;19.50;99.90;;;;;;4993404;28;20128;-63
2022/06/24 01:53:25;;;;;;;14.50;6.32;;;19.30;99.90;;;;;;5034994;28;20037;-64
2022/06/24 01:55:51;;;;;;;8.57;7.03;;;19.50;99.90;;;;;;5022880;28;20053;-64
2022/06/24 01:58:16;;;;;;;11.80;6.90;;;19.50;99.90;;;;;;5011764;28;20120;-64
2022/06/24 02:00:42;;;;;;;11.40;6.55;;;19.50;99.90;;;;;;4995865;28;20557;-64
2022/06/24 02:03:07;;;;;;;10.90;6.45;;;19.50;99.90;;;;;;5023824;28;20516;-64
2022/06/24 02:05:33;;;;;;;7.88;7.03;;;19.50;99.90;;;;;;5012310;28;20408;-65
2022/06/24 02:07:59;;;;;;;9.50;7.13;;;19.40;99.90;;;;;;5027471;28;20174;-64
2022/06/24 02:13:27;;;;;;;10.15;7.88;;;19.80;99.90;;;;;;5044645;28;20045;-64
2022/06/24 02:15:53;;;;;;;10.45;7.38;;;19.20;99.90;;;;;;5018136;28;20040;-64
2022/06/24 02:18:19;;;;;;;9.82;7.82;;;19.30;99.90;;;;;;5009962;28;20041;-64
2022/06/24 02:20:44;;;;;;;8.55;6.93;;;21.10;99.90;;;;;;5003604;28;20052;-64
2022/06/24 02:23:10;;;;;;;8.90;7.28;;;20.20;99.90;;;;;;5024063;28;20060;-64
2022/06/24 02:25:36;;;;;;;10.50;7.50;;;19.00;99.90;;;;;;5016456;28;20088;-64
2022/06/24 02:28:01;;;;;;;8.45;7.53;;;19.00;99.90;;;;;;5012714;28;20403;-65
2022/06/24 02:30:27;;;;;;;8.23;7.22;;;19.00;99.90;;;;;;5022890;28;20041;-64
2022/06/24 02:32:53;;;;;;;9.77;7.20;;;19.80;99.90;;;;;;5007602;28;20119;-64
2022/06/24 02:35:18;;;;;;;10.20;6.82;;;19.90;99.90;;;;;;4997408;28;20041;-64
2022/06/24 02:37:44;;;;;;;11.27;8.63;;;18.70;99.90;;;;;;4996527;28;20169;-64
2022/06/24 02:42:58;;;;;;;12.60;8.73;;;18.90;99.90;;;;;;5013949;28;20046;-64
2022/06/24 02:45:23;;;;;;;9.05;8.07;;;18.60;99.90;;;;;;5013253;28;20113;-64
2022/06/24 02:47:49;;;;;;;13.60;8.95;;;18.60;99.90;;;;;;5021476;28;20506;-64
2022/06/24 02:50:15;;;;;;;10.40;9.25;;;18.80;99.90;;;;;;5015787;28;20057;-64
2022/06/24 02:52:41;;;;;;;14.80;9.43;;;18.70;99.90;;;;;;5015347;28;20046;-64
2022/06/24 02:55:07;;;;;;;9.82;8.82;;;18.60;99.90;;;;;;5034224;28;20402;-65
2022/06/24 02:57:32;;;;;;;17.98;9.10;;;18.70;99.90;;;;;;5025771;28;20216;-63
2022/06/24 03:00:01;;;;;;;12.82;9.32;;;18.80;99.90;;;;;;5040155;28;20040;-64
2022/06/24 03:02:26;;;;;;;12.55;9.38;;;18.80;99.90;;;;;;4994376;28;20050;-64
2022/06/24 03:04:52;;;;;;;11.75;9.25;;;18.80;99.90;;;;;;5011039;28;20034;-64
2022/06/24 03:07:17;;;;;;;10.77;8.82;;;18.90;99.90;;;;;;4994613;28;20069;-64
2022/06/24 03:09:43;;;;;;;16.23;10.18;;;18.70;99.90;;;;;;5015553;28;20431;-64
2022/06/24 03:12:09;;;;;;;11.45;9.35;;;18.90;99.90;;;;;;5017297;28;20395;-64
2022/06/24 03:14:34;;;;;;;11.45;10.15;;;18.60;99.90;;;;;;5015045;28;20041;-64
2022/06/24 03:17:00;;;;;;;15.57;10.18;;;18.60;99.90;;;;;;5014726;28;20122;-64
2022/06/24 03:19:25;;;;;;;11.55;8.50;;;19.20;99.90;;;;;;5016566;28;20139;-64
2022/06/24 03:21:54;;;;;;;11.70;7.55;;;19.00;99.90;;;;;;5016052;28;20046;-63
2022/06/24 03:24:21;;;;;;;6.88;5.13;;;18.70;99.90;;;;;;5032405;28;20124;-64
2022/06/24 03:26:47;;;;;;;6.40;4.15;;;20.50;99.90;;;;;;5036120;28;20083;-64
2022/06/24 03:29:15;;;;;;;6.07;4.68;;;17.80;99.90;;;;;;5000163;28;20073;-64
2022/06/24 03:31:41;;;;;;;6.82;5.63;;;18.80;99.90;;;;;;4998617;28;20495;-64
2022/06/24 03:34:09;;;;;;;8.52;5.85;;;18.90;99.90;;;;;;4996347;28;20037;-64
2022/06/24 03:36:34;;;;;;;10.00;7.63;;;19.00;99.90;;;;;;5014325;28;20550;-64
2022/06/24 03:39:00;;;;;;;14.15;10.80;;;20.40;99.90;;;;;;5014756;28;20038;-64
2022/06/24 03:41:25;;;;;;;15.88;11.45;;;19.20;99.90;;;;;;5024410;28;20076;-64
2022/06/24 03:43:51;;;;;;;20.05;14.63;;;19.00;99.90;;;;;;5012605;28;20419;-64
2022/06/24 03:46:16;;;;;;;24.65;15.90;;;19.30;99.90;;;;;;5016192;28;20546;-63
2022/06/24 03:48:42;;;;;;;24.23;17.45;;;19.30;99.90;;;;;;5017829;28;20423;-64
2022/06/24 03:51:07;;;;;;;20.38;17.92;;;19.50;99.90;;;;;;5014159;28;20480;-64
2022/06/24 03:53:33;;;;;;;24.17;18.20;;;19.30;99.90;;;;;;5002774;28;20044;-64
2022/06/24 03:55:59;;;;;;;28.20;20.10;;;19.60;99.90;;;;;;5002218;28;20488;-63
2022/06/24 03:58:25;;;;;;;28.35;19.58;;;19.50;99.90;;;;;;5034248;28;20095;-63
2022/06/24 04:00:50;;;;;;;25.38;18.65;;;19.90;99.90;;;;;;5016268;28;20050;-64
2022/06/24 04:03:16;;;;;;;23.98;17.85;;;19.80;99.90;;;;;;5031977;28;20045;-64
2022/06/24 04:05:41;;;;;;;21.33;14.90;;;20.00;99.90;;;;;;5033865;28;20041;-64
2022/06/24 04:08:07;;;;;;;17.88;13.02;;;19.90;99.90;;;;;;5016406;28;20049;-64
2022/06/24 04:10:33;;;;;;;14.50;8.48;;;20.20;99.90;;;;;;5015890;28;20045;-64
2022/06/24 04:12:58;;;;;;;13.65;8.40;;;20.00;99.90;;;;;;5024887;28;20434;-64
2022/06/24 04:15:24;;;;;;;9.05;6.63;;;20.10;99.90;;;;;;5018702;28;20046;-64
2022/06/24 04:17:49;;;;;;;12.18;6.00;;;20.30;99.90;;;;;;5054599;28;20041;-64
2022/06/24 04:20:17;;;;;;;8.90;5.07;;;20.20;99.90;;;;;;5025518;28;20061;-64
2022/06/24 04:22:44;;;;;;;12.57;6.85;;;20.20;99.90;;;;;;5027130;28;20046;-65
2022/06/24 04:25:11;;;;;;;9.10;5.80;;;20.20;99.90;;;;;;5004638;28;20053;-62
2022/06/24 04:27:36;;;;;;;9.38;5.07;;;20.00;99.90;;;;;;5029524;28;20048;-62
2022/06/24 04:30:05;;;;;;;8.95;5.75;;;20.20;99.90;;;;;;5000849;28;20042;-62
2022/06/24 04:32:31;;;;;;;7.13;5.10;;;20.00;99.90;;;;;;4999887;28;20059;-62
2022/06/24 04:34:56;;;;;;;9.98;5.57;;;20.30;99.90;;;;;;5022012;28;20120;-62
2022/06/24 04:37:24;;;;;;;6.50;5.35;;;20.10;99.90;;;;;;5020797;28;20052;-62
2022/06/24 04:39:50;;;;;;;8.45;4.72;;;20.30;99.90;;;;;;5016313;28;20033;-62
2022/06/24 04:42:16;;;;;;;7.82;4.80;;;20.10;99.90;;;;;;5015815;28;20049;-63
2022/06/24 04:44:41;;;;;;;6.28;4.47;;;20.30;99.90;;;;;;5017390;28;20480;-63
2022/06/24 04:47:07;;;;;;;9.90;5.05;;;20.10;99.90;;;;;;5020212;28;20048;-64
2022/06/24 04:49:33;;;;;;;6.25;4.28;;;20.30;99.90;;;;;;5019212;28;20400;-64
2022/06/24 04:51:59;;;;;;;7.40;4.38;;;20.20;99.90;;;;;;5013139;28;20042;-63
2022/06/24 04:54:25;;;;;;;5.57;4.18;;;20.20;99.90;;;;;;5021710;28;20038;-62
2022/06/24 04:56:51;;;;;;;5.95;4.07;;;20.40;99.90;;;;;;5006271;28;20045;-63
2022/06/24 04:59:16;;;;;;;5.50;4.00;;;20.20;99.90;;;;;;5019889;28;20034;-64
2022/06/24 05:01:42;;;;;;;4.50;3.83;;;20.50;99.90;;;;;;5028664;28;20114;-63
2022/06/24 05:04:08;;;;;;;5.63;3.40;;;20.40;99.90;;;;;;5008956;28;20560;-63
2022/06/24 05:06:34;;;;;;;3.95;3.08;;;20.50;99.90;;;;;;5022489;28;20037;-62
2022/06/24 05:09:02;;;;;;;6.55;3.28;;;20.20;99.90;;;;;;5028103;28;20061;-62
2022/06/24 05:11:30;;;;;;;4.97;3.33;;;20.30;99.90;;;;;;5030003;28;20041;-62
2022/06/24 05:13:55;;;;;;;5.70;3.58;;;20.60;99.90;;;;;;5043980;28;20061;-63
2022/06/24 05:16:21;;;;;;;6.50;3.15;;;20.60;99.90;;;;;;5020741;28;20531;-63
2022/06/24 05:18:46;;;;;;;4.45;2.92;;;20.70;99.90;;;;;;5030577;28;20033;-63
2022/06/24 05:21:12;;;;;;;4.97;3.15;;;20.50;99.90;;;;;;5000718;28;20534;-63
2022/06/24 05:23:37;;;;;;;5.85;2.78;;;20.60;99.90;;;;;;5031544;28;20091;-63
2022/06/24 05:26:03;;;;;;;3.80;2.72;;;20.40;99.90;;;;;;5013061;28;20038;-63
2022/06/24 05:28:28;;;;;;;4.30;2.83;;;20.60;99.90;;;;;;5013732;28;20050;-63
2022/06/24 05:30:56;;;;;;;5.15;2.90;;;20.60;99.90;;;;;;5028696;28;20038;-63
2022/06/24 05:33:22;;;;;;;3.17;2.35;;;20.50;99.90;;;;;;5029367;28;20037;-63
2022/06/24 05:35:51;;;;;;;5.53;2.65;;;20.40;99.90;;;;;;5029246;28;20033;-63
2022/06/24 05:38:17;;;;;;;3.65;2.30;;;20.50;99.90;;;;;;5031723;28;20041;-63
2022/06/24 05:40:43;;;;;;;5.32;2.47;;;20.50;99.90;;;;;;5027904;28;20045;-63
2022/06/24 05:43:08;;;;;;;5.30;2.85;;;20.40;99.90;;;;;;5018138;28;20069;-63
2022/06/24 05:45:34;;;;;;;4.10;2.45;;;20.40;99.90;;;;;;5021447;28;20120;-63
2022/06/24 05:48:00;;;;;;;7.32;3.03;;;20.30;99.90;;;;;;5010214;28;20480;-64
2022/06/24 05:50:26;;;;;;;3.45;2.47;;;20.30;99.90;;;;;;4998677;28;20034;-63
2022/06/24 05:55:38;;;;;;;5.78;3.25;;;20.50;99.90;;;;;;5001859;28;20050;-64
2022/06/24 05:58:04;;;;;;;3.95;3.00;;;20.60;99.90;;;;;;4998430;28;20037;-63
2022/06/24 06:00:31;;;;;;;4.85;3.08;;;20.20;99.90;;;;;;5025078;28;20443;-64
2022/06/24 06:02:56;;;;;;;8.50;3.13;;;20.40;99.90;;;;;;4998979;28;20054;-63
2022/06/24 06:05:26;;;;;;;7.78;3.45;;;20.50;99.90;;;;;;4998886;28;20056;-63
2022/06/24 06:07:54;;;;;;;6.30;3.40;;;20.50;99.90;;;;;;5022570;28;20061;-63
2022/06/24 06:10:19;;;;;;;6.22;3.20;;;20.40;99.90;;;;;;5027255;28;20041;-63
2022/06/24 06:12:45;;;;;;;7.43;3.92;;;20.40;99.90;;;;;;5013496;28;20037;-63
2022/06/24 06:15:11;;;;;;;8.05;4.10;;;20.50;99.90;;;;;;5010016;28;20125;-64
2022/06/24 06:17:36;;;;;;;9.00;3.65;;;20.30;99.90;;;;;;5011774;28;20046;-62
2022/06/24 06:20:02;;;;;;;8.82;4.90;;;20.30;99.90;;;;;;5029009;28;20128;-63
2022/06/24 06:22:28;;;;;;;4.93;3.70;;;20.50;99.90;;;;;;5012899;28;20049;-62
2022/06/24 06:24:53;;;;;;;4.72;3.42;;;20.50;99.90;;;;;;4998640;28;20037;-63
2022/06/24 06:27:19;;;;;;;8.20;4.13;;;20.60;99.90;;;;;;4995540;28;20045;-63
2022/06/24 06:29:44;;;;;;;6.72;3.40;;;20.60;99.90;;;;;;5012994;28;20767;-62
2022/06/24 06:32:10;;;;;;;4.93;3.53;;;20.30;99.90;;;;;;4995889;28;20049;-63
2022/06/24 06:34:36;;;;;;;5.50;3.63;;;20.40;99.90;;;;;;4996330;28;20413;-62
2022/06/24 06:37:01;;;;;;;6.15;3.85;;;20.40;99.90;;;;;;5014715;28;20044;-62
2022/06/24 06:39:27;;;;;;;6.45;3.95;;;20.40;99.90;;;;;;4996751;28;20088;-62
2022/06/24 06:41:52;;;;;;;6.20;3.90;;;20.20;99.90;;;;;;4995585;28;20088;-63
2022/06/24 06:44:18;;;;;;;6.93;4.38;;;20.40;99.90;;;;;;5012835;28;20124;-63
2022/06/24 06:46:44;;;;;;;7.47;4.50;;;20.50;99.90;;;;;;5015050;28;20120;-62
2022/06/24 06:49:09;;;;;;;5.40;3.65;;;20.30;99.90;;;;;;5012958;28;20045;-62
2022/06/24 06:51:35;;;;;;;6.50;4.32;;;20.60;99.90;;;;;;4995110;28;22275;-62
2022/06/24 06:54:03;;;;;;;5.22;4.03;;;20.60;99.90;;;;;;5012177;28;20059;-62
2022/06/24 06:56:28;;;;;;;4.65;3.92;;;20.50;99.90;;;;;;4994669;28;20049;-62
2022/06/24 06:58:54;;;;;;;5.18;4.10;;;20.50;99.90;;;;;;5008697;28;20664;-62
2022/06/24 07:01:19;;;;;;;6.47;3.60;;;22.50;99.90;;;;;;5012774;28;20426;-63
2022/06/24 07:03:45;;;;;;;6.68;3.35;;;20.40;99.90;;;;;;4977768;28;20211;-62
2022/06/24 07:06:13;;;;;;;7.13;4.32;;;20.20;99.90;;;;;;5014441;28;20051;-62
2022/06/24 07:08:38;;;;;;;7.32;4.25;;;20.50;99.90;;;;;;4994929;28;20102;-63
2022/06/24 07:11:04;;;;;;;7.47;4.22;;;21.50;99.90;;;;;;5013147;28;20045;-62
2022/06/24 07:13:30;;;;;;;6.30;3.63;;;20.60;99.90;;;;;;5012898;28;20606;-63
2022/06/24 07:15:55;;;;;;;4.75;3.70;;;20.30;99.90;;;;;;5013335;28;20059;-63
2022/06/24 07:18:24;;;;;;;9.18;4.55;;;20.40;99.90;;;;;;5013140;28;20096;-62
2022/06/24 07:20:49;;;;;;;7.25;5.00;;;20.30;99.90;;;;;;5013707;28;20037;-62
2022/06/24 07:23:15;;;;;;;4.93;4.07;;;20.30;99.90;;;;;;5012168;28;20403;-63
2022/06/24 07:25:40;;;;;;;5.57;4.28;;;20.00;99.90;;;;;;4995132;28;20128;-62
2022/06/24 07:28:08;;;;;;;5.00;3.67;;;20.40;99.90;;;;;;5013346;28;20049;-63
2022/06/24 07:30:36;;;;;;;6.90;4.25;;;20.30;99.90;;;;;;5013761;28;20487;-62
2022/06/24 07:33:02;;;;;;;8.70;4.75;;;20.20;99.90;;;;;;5013928;28;20128;-62
2022/06/24 07:35:28;;;;;;;6.03;5.07;;;18.40;99.90;;;;;;4994206;28;20677;-62
2022/06/24 07:37:53;;;;;;;5.90;4.65;;;20.20;99.90;;;;;;5011036;28;20052;-61
2022/06/24 07:40:19;;;;;;;6.43;4.60;;;20.40;99.90;;;;;;5012628;28;20045;-62
2022/06/24 07:42:45;;;;;;;8.15;5.18;;;20.50;99.90;;;;;;4978000;28;20037;-62
2022/06/24 07:45:12;;;;;;;8.05;4.05;;;20.30;99.90;;;;;;5012897;28;20052;-62
2022/06/24 07:47:37;;;;;;;8.02;4.43;;;20.20;99.90;;;;;;4993535;28;20483;-62
2022/06/24 07:50:04;;;;;;;9.93;4.78;;;20.40;99.90;;;;;;5011585;28;20065;-62
2022/06/24 07:52:30;;;;;;;8.48;4.57;;;20.40;99.90;;;;;;5009367;28;20061;-63
2022/06/24 07:57:39;;;;;;;5.33;3.80;;;20.70;99.90;;;;;;4988518;28;20049;-63
2022/06/24 08:00:06;;;;;;;6.07;3.60;;;20.20;99.90;;;;;;5014381;28;20404;-63
2022/06/24 08:02:31;;;;;;;5.53;4.03;;;20.30;99.90;;;;;;4995424;28;21615;-62
2022/06/24 08:04:57;;;;;;;5.28;4.22;;;20.30;99.90;;;;;;4996622;28;20057;-62
2022/06/24 08:07:22;;;;;;;6.68;3.70;;;20.40;99.90;;;;;;4995813;28;20052;-62
2022/06/24 08:09:48;;;;;;;4.35;3.47;;;20.00;99.90;;;;;;5014595;28;20044;-62
2022/06/24 08:12:16;;;;;;;5.90;3.35;;;20.20;99.90;;;;;;5015301;28;20079;-63
2022/06/24 08:14:42;;;;;;;6.88;3.90;;;20.20;99.90;;;;;;5014922;28;20671;-63
2022/06/24 08:17:07;;;;;;;7.85;4.15;;;20.30;99.90;;;;;;4997590;28;20057;-63
2022/06/24 08:19:33;;;;;;;7.90;4.57;;;20.30;99.90;;;;;;5013724;28;20490;-63
2022/06/24 08:21:58;;;;;;;5.57;3.78;;;20.20;99.90;;;;;;4996727;28;20054;-64
2022/06/24 08:24:24;;;;;;;4.80;4.30;;;20.30;99.90;;;;;;4995532;28;20420;-63
2022/06/24 08:26:50;;;;;;;5.10;3.85;;;20.10;99.90;;;;;;5012880;28;20044;-63
2022/06/24 08:29:15;;;;;;;9.30;4.68;;;20.40;99.90;;;;;;4994594;28;20111;-63
2022/06/24 08:31:41;;;;;;;5.15;4.28;;;20.30;99.90;;;;;;5014186;28;20045;-63
2022/06/24 08:34:07;;;;;;;6.00;3.90;;;20.20;99.90;;;;;;5014106;28;21511;-63
2022/06/24 08:36:36;;;;;;;9.02;4.80;;;20.20;99.90;;;;;;4995616;28;20049;-63
2022/06/24 08:39:02;;;;;;;6.05;4.18;;;20.30;99.90;;;;;;4996840;28;20442;-63
2022/06/24 08:41:32;;;;;;;5.45;3.90;;;20.40;99.90;;;;;;4997324;28;20045;-63
2022/06/24 08:43:58;;;;;;;8.45;4.38;;;20.20;99.90;;;;;;5014754;28;20045;-63
2022/06/24 08:46:25;;;;;;;7.60;4.55;;;20.20;99.90;;;;;;5013823;28;20111;-64
2022/06/24 08:48:51;;;;;;;7.32;4.32;;;20.90;99.90;;;;;;5013480;28;20164;-63
2022/06/24 08:51:19;;;;;;;8.63;4.88;;;20.20;99.90;;;;;;4979485;28;20533;-63
2022/06/24 08:53:45;;;;;;;7.38;4.47;;;20.00;99.90;;;;;;4994257;28;20132;-63
2022/06/24 08:56:11;;;;;;;10.15;4.82;;;20.30;99.90;;;;;;5013570;28;20095;-63
2022/06/24 08:58:37;;;;;;;9.70;5.63;;;20.30;99.90;;;;;;4995700;28;20053;-62
2022/06/24 09:01:03;;;;;;;9.75;5.47;;;20.30;99.90;;;;;;5012882;28;20042;-63
2022/06/24 09:03:28;;;;;;;10.20;5.97;;;20.80;99.90;;;;;;4978883;28;20510;-62
2022/06/24 09:05:54;;;;;;;8.60;6.13;;;19.90;99.90;;;;;;4997276;28;20509;-63
2022/06/24 09:08:19;;;;;;;10.00;5.95;;;20.20;99.90;;;;;;4997601;28;20541;-62
2022/06/24 09:14:00;;;;;;;9.88;4.05;;;20.10;99.90;;;;;;5013427;28;21370;-63
2022/06/24 09:16:26;;;;;;;9.05;3.65;;;20.00;99.90;;;;;;4993178;28;20119;-61
2022/06/24 09:19:00;;;;;;;5.57;2.45;;;19.60;99.90;;;;;;4994387;28;20159;-63
2022/06/24 09:21:29;;;;;;;4.22;2.28;;;19.60;99.90;;;;;;5014283;28;20049;-62
2022/06/24 09:24:00;;;;;;;7.88;2.47;;;19.60;99.90;;;;;;5013033;28;20098;-63
2022/06/24 09:26:37;;;;;;;3.38;2.00;;;19.20;99.90;;;;;;5013107;28;20132;-63
2022/06/24 09:29:05;;;;;;;2.58;1.58;;;19.10;99.90;;;;;;5012480;28;20148;-62
2022/06/24 09:31:31;;;;;;;5.13;2.15;;;19.30;99.90;;;;;;5012313;28;20579;-63
2022/06/24 09:34:25;;;;;;;3.78;2.00;;;19.30;99.90;;;;;;4993075;28;20454;-63
2022/06/24 09:36:51;;;;;;;6.90;2.13;;;19.20;99.90;;;;;;4994811;28;20119;-63
2022/06/24 09:39:16;;;;;;;6.47;2.45;;;19.20;99.90;;;;;;4994160;28;20045;-62
2022/06/24 09:41:45;;;;;;;4.53;2.30;;;19.20;99.90;;;;;;5001693;28;20068;-63
2022/06/24 09:44:11;;;;;;;6.10;2.30;;;18.80;99.90;;;;;;4993443;28;20060;-62
2022/06/24 09:46:37;;;;;;;4.95;2.20;;;19.00;99.90;;;;;;5012744;28;20041;-62
2022/06/24 09:49:07;;;;;;;4.78;2.42;;;20.00;99.90;;;;;;4993912;28;20099;-63
2022/06/24 09:51:34;;;;;;;5.38;2.20;;;18.80;99.90;;;;;;5013151;28;20047;-63
2022/06/24 09:54:00;;;;;;;6.45;2.40;;;18.80;99.90;;;;;;5012372;28;20081;-63
2022/06/24 09:56:27;;;;;;;4.70;2.22;;;18.80;99.90;;;;;;4993840;28;20132;-63
2022/06/24 10:01:43;;;;;;;4.28;2.40;;;19.00;99.90;;;;;;5011777;28;20139;-63
2022/06/24 10:04:13;;;;;;;5.78;2.50;;;19.00;99.90;;;;;;4993817;28;20642;-64
2022/06/24 10:06:44;;;;;;;5.28;1.80;;;18.80;99.90;;;;;;4993511;28;20143;-63
2022/06/24 10:09:10;;;;;;;5.55;2.28;;;18.70;99.90;;;;;;4994302;28;20048;-63
2022/06/24 10:11:44;;;;;;;5.97;2.50;;;18.90;99.90;;;;;;5014399;28;20045;-64
2022/06/24 10:14:12;;;;;;;4.40;2.28;;;19.10;99.90;;;;;;4995329;28;20053;-62
2022/06/24 10:16:41;;;;;;;4.32;2.33;;;18.90;99.90;;;;;;4995543;28;20559;-62
2022/06/24 10:19:09;;;;;;;5.97;2.70;;;18.80;99.90;;;;;;5012883;28;20087;-61
2022/06/24 10:21:35;;;;;;;6.15;2.42;;;19.00;99.90;;;;;;5013599;28;20092;-62
2022/06/24 10:24:10;;;;;;;3.10;2.08;;;19.10;99.90;;;;;;5012206;28;20115;-61
2022/06/24 10:26:39;;;;;;;5.45;2.15;;;19.00;99.90;;;;;;5012671;28;20041;-62
2022/06/24 10:29:04;;;;;;;3.55;2.80;;;19.30;99.90;;;;;;5013003;28;20071;-62
2022/06/24 10:31:42;;;;;;;3.92;2.13;;;19.20;99.90;;;;;;5014087;28;20402;-62
2022/06/24 10:34:26;;;;;;;2.40;1.85;;;19.10;99.90;;;;;;4992467;28;20056;-62
2022/06/24 10:36:56;;;;;;;4.53;2.57;;;19.10;99.90;;;;;;5013274;28;21221;-63
2022/06/24 10:39:23;;;;;;;4.70;2.35;;;19.30;99.90;;;;;;5008493;28;20867;-62
2022/06/24 10:42:06;;;;;;;5.00;2.72;;;19.10;99.90;;;;;;5006821;28;20045;-62
2022/06/24 10:44:37;;;;;;;4.43;2.80;;;19.20;99.90;;;;;;5008879;28;20430;-62
2022/06/24 10:47:05;;;;;;;4.47;2.78;;;19.30;99.90;;;;;;5006707;28;20051;-63
2022/06/24 10:49:50;;;;;;;4.97;3.22;;;19.30;99.90;;;;;;4987438;28;20050;-64
2022/06/24 10:52:33;;;;;;;4.03;2.90;;;19.20;99.90;;;;;;4988694;28;20343;-62
2022/06/24 10:55:17;;;;;;;6.20;2.90;;;19.30;99.90;;;;;;4989212;28;20155;-62
2022/06/24 10:57:49;;;;;;;4.97;3.38;;;20.40;99.90;;;;;;4994113;28;21396;-63
2022/06/24 11:00:20;;;;;;;4.78;3.78;;;19.30;99.90;;;;;;4993121;28;20062;-61
2022/06/24 11:02:50;;;;;;;5.38;3.50;;;19.40;99.90;;;;;;5011405;28;20068;-62
2022/06/24 11:05:23;;;;;;;5.70;4.05;;;19.30;99.90;;;;;;5011180;28;20095;-61
2022/06/24 11:07:52;;;;;;;5.07;4.57;;;19.40;99.90;;;;;;4993789;28;20057;-63
2022/06/24 11:10:38;;;;;;;8.63;5.00;;;19.60;99.90;;;;;;4977288;28;20232;-62
2022/06/24 11:13:03;;;;;;;7.82;4.55;;;19.70;99.90;;;;;;4993764;28;20058;-61
2022/06/24 11:15:36;;;;;;;7.63;4.18;;;19.80;99.90;;;;;;5013141;28;20088;-62
2022/06/24 11:18:12;;;;;;;5.68;4.38;;;19.80;99.90;;;;;;5012978;28;20525;-62
2022/06/24 11:20:47;;;;;;;7.75;4.90;;;19.70;99.90;;;;;;4994683;28;20080;-61
2022/06/24 11:23:14;;;;;;;8.85;5.72;;;19.90;99.90;;;;;;4993869;28;20060;-62
2022/06/24 11:25:46;;;;;;;8.13;5.85;;;19.90;99.90;;;;;;4994435;28;20141;-63
2022/06/24 11:28:22;;;;;;;9.68;6.32;;;20.30;99.90;;;;;;4993745;28;20057;-62
2022/06/24 11:30:49;;;;;;;8.40;6.72;;;20.10;99.90;;;;;;4994988;28;20060;-62
2022/06/24 11:33:14;;;;;;;10.02;7.28;;;20.20;99.90;;;;;;4997122;28;20474;-62
2022/06/24 11:35:40;;;;;;;11.35;8.52;;;20.10;99.90;;;;;;4981269;28;20056;-62
2022/06/24 11:38:08;;;;;;;13.57;9.82;;;20.20;99.90;;;;;;5016321;28;20127;-62
2022/06/24 11:40:35;;;;;;;12.20;9.98;;;20.10;99.90;;;;;;5016011;28;20502;-62
2022/06/24 11:43:11;;;;;;;17.05;12.40;;;20.40;99.90;;;;;;4996412;28;20033;-63
2022/06/24 11:45:42;;;;;;;15.85;12.00;;;20.20;99.90;;;;;;4993716;28;20109;-62
2022/06/24 11:48:18;;;;;;;16.00;14.30;;;20.40;99.90;;;;;;5014569;28;20041;-63
2022/06/24 11:50:43;;;;;;;22.40;15.82;;;20.50;99.90;;;;;;4996119;28;20671;-63
2022/06/24 11:53:09;;;;;;;21.08;17.50;;;20.30;99.90;;;;;;5015487;28;20045;-63
2022/06/24 11:55:37;;;;;;;19.73;17.63;;;20.40;99.90;;;;;;4996428;28;20388;-62
2022/06/24 11:58:05;;;;;;;23.23;18.48;;;20.70;99.90;;;;;;5012595;28;20057;-63
2022/06/24 12:00:34;;;;;;;24.92;19.40;;;20.50;99.90;;;;;;5013605;28;20045;-63
2022/06/24 12:03:01;;;;;;;21.10;18.83;;;20.60;99.90;;;;;;4996027;28;20908;-62
2022/06/24 12:05:30;;;;;;;24.70;20.45;;;20.90;99.90;;;;;;5015003;28;20038;-62
2022/06/24 12:07:57;;;;;;;21.17;18.27;;;20.60;99.90;;;;;;5013691;28;20034;-62
2022/06/24 12:10:22;;;;;;;21.88;17.33;;;20.90;99.90;;;;;;5015483;28;20045;-62
2022/06/24 12:12:57;;;;;;;20.63;18.48;;;21.10;99.90;;;;;;5015397;28;20486;-63
2022/06/24 12:15:35;;;;;;;21.80;18.90;;;21.10;99.90;;;;;;4996807;28;20068;-63
2022/06/24 12:18:02;;;;;;;19.58;17.52;;;21.00;99.90;;;;;;4996846;28;20549;-63
2022/06/24 12:20:29;;;;;;;19.00;16.73;;;21.20;99.90;;;;;;5014589;28;20072;-62
2022/06/24 12:23:21;;;;;;;19.58;17.50;;;21.30;99.90;;;;;;4995133;28;20045;-63
2022/06/24 12:25:48;;;;;;;21.00;16.75;;;21.20;99.90;;;;;;4994965;28;20060;-63
2022/06/24 12:28:25;;;;;;;24.13;18.23;;;21.40;99.90;;;;;;5012078;28;20127;-62
2022/06/24 12:30:57;;;;;;;20.52;18.35;;;21.10;99.90;;;;;;5012669;28;20041;-62
2022/06/24 12:33:24;;;;;;;21.10;18.63;;;21.60;99.90;;;;;;5014457;28;20418;-63
2022/06/24 12:36:10;;;;;;;21.85;17.65;;;21.50;99.90;;;;;;5012222;28;20104;-61
2022/06/24 12:38:38;;;;;;;19.50;17.45;;;21.50;99.90;;;;;;5013216;28;20045;-63
2022/06/24 12:41:13;;;;;;;24.88;19.25;;;21.30;99.90;;;;;;5012669;28;20040;-63
2022/06/24 12:44:00;;;;;;;24.25;19.67;;;21.50;99.90;;;;;;5013231;28;20140;-63
2022/06/24 12:52:44;;;;;;;20.92;16.23;;;21.50;99.90;;;;;;5013742;28;20089;-62
2022/06/24 12:55:13;;;;;;;17.38;13.77;;;21.20;99.90;;;;;;4994913;28;20049;-63
2022/06/24 12:57:39;;;;;;;18.13;14.40;;;21.50;99.90;;;;;;5012966;28;20037;-63
2022/06/24 13:00:10;;;;;;;16.65;14.35;;;21.50;99.90;;;;;;5012479;28;20148;-63
2022/06/24 13:02:36;;;;;;;16.08;14.18;;;21.50;99.90;;;;;;4995135;28;20054;-63
2022/06/24 13:05:03;;;;;;;21.77;14.93;;;21.70;99.90;;;;;;4994320;28;20522;-62
2022/06/24 13:07:28;;;;;;;15.77;14.10;;;21.90;99.90;;;;;;4995560;28;20128;-63
2022/06/24 13:09:54;;;;;;;19.38;16.35;;;21.70;99.90;;;;;;5013459;28;20491;-62